Time;durP1;ratioP1;P1;durP2;ratioP2;P2;SDS_P1;SDS_P2;PMS_P1;PMS_P2;Temp;Humidity;BMP_temperature;BMP_pressure;BME280_temperature;BME280_humidity;BME280_pressure;Samples;Min_cycle;Max_cycle;Signal;HPM_P1;HPM_P2
2022/12/22 03:27:17;;;;;;;50.20;23.00;;;1.10;93.50;;;0.68;60.25;95131.75;5076469;28;20573;-57
2022/12/22 03:29:45;;;;;;;43.10;21.97;;;1.10;93.70;;;0.68;59.89;95136.06;5080098;28;20977;-55
2022/12/22 03:32:13;;;;;;;40.43;20.80;;;1.00;93.60;;;0.67;60.29;95134.41;5076507;28;20451;-58
2022/12/22 03:34:40;;;;;;;54.87;21.90;;;1.00;93.70;;;0.66;60.05;95140.50;5080458;28;21070;-56
2022/12/22 03:37:08;;;;;;;53.50;22.83;;;1.00;93.70;;;0.65;59.84;95144.84;5076807;28;20490;-58
2022/12/22 03:39:35;;;;;;;49.87;21.47;;;1.00;93.60;;;0.63;59.62;95141.47;5079751;28;20474;-55
2022/12/22 03:47:44;;;;;;;48.80;22.50;;;1.00;93.60;;;0.59;59.97;95147.72;5075709;28;20433;-56
2022/12/22 03:50:12;;;;;;;96.63;43.13;;;0.90;93.60;;;0.57;60.29;95134.00;5081624;28;20475;-57
2022/12/22 03:52:39;;;;;;;44.43;21.60;;;0.90;93.90;;;0.57;60.60;95131.41;5083415;28;20469;-57
2022/12/22 03:55:07;;;;;;;34.57;19.83;;;0.90;94.10;;;0.57;61.06;95138.34;5080870;28;20486;-59
2022/12/22 03:57:35;;;;;;;39.20;20.73;;;0.90;94.10;;;0.57;60.02;95134.00;5083353;28;20490;-57
2022/12/22 04:00:02;;;;;;;40.50;19.67;;;0.90;94.20;;;0.59;60.11;95131.34;5079212;28;20531;-58
2022/12/22 04:02:29;;;;;;;42.47;19.87;;;0.90;94.00;;;0.59;61.07;95126.16;5082296;28;20457;-56
2022/12/22 04:04:58;;;;;;;35.70;19.47;;;0.90;94.10;;;0.58;60.17;95125.34;5081754;28;20473;-57
2022/12/22 04:07:25;;;;;;;45.03;20.07;;;0.90;94.00;;;0.59;59.84;95127.00;5084657;28;20446;-54
2022/12/22 04:12:55;;;;;;;31.03;18.97;;;0.90;93.90;;;0.59;59.98;95131.34;5079175;28;20810;-58
2022/12/22 04:15:23;;;;;;;44.17;19.57;;;0.90;93.90;;;0.58;60.09;95130.50;5083781;28;20482;-58
2022/12/22 04:17:50;;;;;;;32.63;16.70;;;0.90;93.90;;;0.56;59.48;95132.34;5078077;28;20486;-56
2022/12/22 04:20:19;;;;;;;36.73;17.67;;;0.90;93.80;;;0.56;60.08;95140.09;5079625;28;20462;-56
2022/12/22 04:22:47;;;;;;;42.57;18.97;;;0.90;93.80;;;0.55;60.50;95135.00;5079428;28;20816;-54
2022/12/22 04:25:14;;;;;;;36.60;18.60;;;0.90;93.80;;;0.53;60.46;95129.91;5083238;28;20475;-56
2022/12/22 04:27:41;;;;;;;40.67;19.10;;;0.90;93.70;;;0.54;59.44;95136.72;5079545;28;20926;-56
2022/12/22 04:30:10;;;;;;;34.80;17.60;;;0.90;93.60;;;0.53;59.83;95137.66;5083106;28;20523;-56
2022/12/22 04:32:37;;;;;;;34.37;19.00;;;0.90;93.70;;;0.53;59.74;95135.06;5084284;28;20457;-57
2022/12/22 04:35:06;;;;;;;35.20;16.93;;;0.90;94.00;;;0.55;60.58;95137.59;5082542;28;20479;-55
2022/12/22 04:37:35;;;;;;;40.97;16.30;;;0.90;93.90;;;0.55;60.45;95130.66;5086906;28;20489;-57
2022/12/22 04:40:02;;;;;;;32.90;16.93;;;0.90;93.90;;;0.54;60.74;95128.97;5080550;28;20581;-56
2022/12/22 04:42:29;;;;;;;36.10;17.90;;;0.90;94.10;;;0.56;60.43;95127.16;5084684;28;20455;-56
2022/12/22 04:44:57;;;;;;;39.00;19.33;;;0.90;94.20;;;0.56;60.39;95122.00;5091623;28;21101;-58
2022/12/22 04:47:24;;;;;;;49.30;17.80;;;0.90;94.10;;;0.56;60.99;95119.41;5090813;28;20465;-57
2022/12/22 04:49:51;;;;;;;40.70;18.73;;;0.90;94.20;;;0.55;61.11;95125.47;5092514;28;20478;-54
2022/12/22 04:52:18;;;;;;;42.50;16.50;;;0.90;94.30;;;0.54;61.09;95126.38;5085034;28;20449;-60
2022/12/22 04:54:47;;;;;;;45.07;19.10;;;0.90;94.40;;;0.57;60.64;95122.81;5088554;28;20475;-54
2022/12/22 04:57:14;;;;;;;45.27;18.47;;;0.90;94.20;;;0.58;60.05;95122.75;5084289;28;20586;-56
2022/12/22 04:59:41;;;;;;;38.50;18.30;;;0.90;94.10;;;0.60;59.97;95125.25;5080954;28;20481;-55
2022/12/22 05:02:08;;;;;;;31.00;17.77;;;0.90;94.10;;;0.59;60.79;95124.44;5080808;28;20469;-57
2022/12/22 05:04:36;;;;;;;46.20;18.90;;;0.90;94.20;;;0.60;59.82;95118.31;5082288;28;20481;-54
2022/12/22 05:07:04;;;;;;;28.70;16.70;;;0.90;94.10;;;0.61;59.61;95121.75;5092223;28;20470;-59
2022/12/22 05:09:34;;;;;;;35.03;18.57;;;0.90;94.10;;;0.61;59.90;95130.34;5079722;28;20494;-59
2022/12/22 05:12:53;;;;;;;38.37;18.40;;;0.90;94.10;;;0.60;60.34;95133.84;5087717;28;20450;-56
2022/12/22 05:14:53;;;;;;;41.83;17.43;;;1.00;94.20;;;0.61;60.69;95127.78;5080798;28;20589;-57
2022/12/22 05:17:21;;;;;;;30.07;15.90;;;0.90;94.20;;;0.60;60.87;95133.84;5087536;28;20899;-59
2022/12/22 05:19:48;;;;;;;38.80;18.00;;;1.00;94.30;;;0.62;60.82;95129.47;5086140;28;20848;-59
2022/12/22 05:22:15;;;;;;;39.53;19.03;;;1.00;94.20;;;0.63;60.99;95133.69;5081537;28;20466;-55
2022/12/22 05:24:43;;;;;;;40.00;19.00;;;1.00;94.30;;;0.61;60.26;95139.88;5086903;28;20474;-55
2022/12/22 05:27:12;;;;;;;48.43;22.97;;;0.90;94.20;;;0.59;60.07;95139.97;5080533;28;20456;-59
2022/12/22 05:29:39;;;;;;;43.17;21.47;;;0.90;94.10;;;0.59;59.67;95145.13;5080260;28;20880;-58
2022/12/22 05:32:07;;;;;;;42.63;22.60;;;0.90;94.10;;;0.59;60.67;95137.38;5079815;28;20995;-55
2022/12/22 05:34:34;;;;;;;42.83;20.70;;;0.90;94.10;;;0.58;60.10;95135.69;5081120;28;20475;-56
2022/12/22 05:37:01;;;;;;;44.73;22.60;;;0.90;94.20;;;0.58;60.63;95148.63;5085700;28;20461;-54
2022/12/22 05:39:28;;;;;;;54.03;23.20;;;0.90;94.40;;;0.57;60.16;95144.34;5086632;28;20498;-58
2022/12/22 05:41:56;;;;;;;49.80;22.90;;;0.90;94.20;;;0.56;60.70;95137.50;5086173;28;20488;-57
2022/12/22 05:44:25;;;;;;;52.53;24.73;;;0.90;94.50;;;0.58;60.79;95135.69;5082667;28;20465;-56
2022/12/22 05:46:52;;;;;;;62.87;25.53;;;0.90;94.40;;;0.58;60.84;95138.28;5083149;28;20538;-57
2022/12/22 05:49:20;;;;;;;53.57;27.13;;;0.90;94.50;;;0.58;60.64;95137.44;5085211;28;20462;-57
2022/12/22 05:51:48;;;;;;;54.77;26.50;;;0.90;94.50;;;0.58;61.02;95130.50;5078385;28;20538;-58
2022/12/22 05:54:16;;;;;;;57.83;27.33;;;0.90;94.40;;;0.60;60.41;95139.03;5082865;28;20438;-55
2022/12/22 05:56:43;;;;;;;55.97;28.30;;;0.90;94.50;;;0.60;60.54;95133.03;5084432;28;20904;-59
2022/12/22 05:59:11;;;;;;;66.43;29.30;;;0.90;94.50;;;0.60;60.55;95139.03;5082793;28;20974;-55
2022/12/22 06:01:39;;;;;;;68.80;31.30;;;0.90;94.50;;;0.61;61.11;95135.53;5077365;28;20525;-57
2022/12/22 06:04:07;;;;;;;54.93;28.90;;;0.90;94.50;;;0.62;60.52;95134.63;5079950;28;20458;-56
2022/12/22 06:06:34;;;;;;;82.10;29.40;;;1.00;94.60;;;0.62;61.05;95139.81;5075843;28;20457;-55
2022/12/22 06:09:01;;;;;;;68.83;33.93;;;1.00;94.70;;;0.64;60.53;95135.38;5077592;28;20499;-55
2022/12/22 06:11:28;;;;;;;63.33;32.03;;;1.00;94.50;;;0.60;61.81;95136.44;5089017;28;20493;-57
2022/12/22 06:13:56;;;;;;;67.23;30.90;;;1.00;94.90;;;0.56;60.92;95145.28;5079788;28;20543;-54
2022/12/22 06:16:23;;;;;;;91.07;39.90;;;0.90;94.50;;;0.60;61.00;95139.03;5083224;28;20477;-58
2022/12/22 06:18:52;;;;;;;82.30;36.57;;;1.00;94.70;;;0.78;60.54;95136.50;5078256;28;20489;-56
2022/12/22 06:21:19;;;;;;;74.23;35.20;;;1.10;94.90;;;1.09;61.24;95140.19;5078348;28;20523;-55
2022/12/22 06:23:47;;;;;;;89.93;33.07;;;1.40;94.90;;;1.47;60.82;95150.34;5084861;28;20466;-56
2022/12/22 06:26:14;;;;;;;111.43;50.17;;;1.80;94.80;;;1.88;59.92;95148.22;5082142;28;20479;-55
2022/12/22 06:28:41;;;;;;;129.50;54.30;;;2.10;94.20;;;2.27;59.63;95146.19;5079926;28;20454;-57
2022/12/22 06:31:08;;;;;;;111.20;51.37;;;2.50;93.80;;;2.68;57.81;95148.25;5082422;28;21969;-55
2022/12/22 06:33:35;;;;;;;100.13;49.50;;;3.00;93.30;;;3.07;57.18;95151.31;5086329;28;20449;-55
2022/12/22 06:36:07;;;;;;;111.07;54.50;;;3.40;92.70;;;3.48;56.64;95151.53;5089177;28;20993;-57
2022/12/22 06:38:34;;;;;;;125.40;57.80;;;3.80;92.20;;;3.90;55.89;95146.47;5083451;28;21034;-57
2022/12/22 06:41:01;;;;;;;132.13;60.10;;;4.20;91.60;;;4.32;55.21;95152.56;5090423;28;20477;-57
2022/12/22 06:43:28;;;;;;;159.67;60.70;;;4.70;90.90;;;4.74;54.46;95156.06;5083242;28;20454;-57
2022/12/22 06:45:55;;;;;;;119.03;57.80;;;5.10;90.10;;;5.13;53.94;95149.22;5083442;28;20454;-56
2022/12/22 06:48:23;;;;;;;128.40;57.80;;;5.50;89.30;;;5.51;53.02;95158.06;5078801;28;20458;-54
2022/12/22 06:50:50;;;;;;;128.97;58.20;;;5.80;87.90;;;5.79;52.35;95157.03;5080084;28;20552;-57
2022/12/22 06:53:18;;;;;;;141.80;59.83;;;6.10;85.90;;;6.03;51.67;95161.56;5078666;28;20458;-57
2022/12/22 06:55:46;;;;;;;133.57;59.33;;;6.40;84.10;;;6.34;51.64;95162.91;5078651;28;20622;-58
2022/12/22 06:58:13;;;;;;;112.20;54.93;;;6.70;83.90;;;6.75;51.67;95161.75;5081752;28;20531;-56
2022/12/22 07:00:40;;;;;;;108.47;49.90;;;7.00;83.30;;;7.18;51.02;95163.06;5078395;28;20531;-56
2022/12/22 07:03:07;;;;;;;94.90;46.80;;;7.40;82.20;;;7.61;50.05;95164.31;5078777;28;20477;-57
2022/12/22 07:05:35;;;;;;;95.63;36.77;;;7.80;80.80;;;8.02;49.27;95152.47;5080201;28;20474;-56
2022/12/22 07:08:02;;;;;;;90.93;41.20;;;8.20;79.60;;;8.49;49.89;95152.41;5079337;28;20462;-55
2022/12/22 07:13:22;;;;;;;92.37;39.43;;;9.00;75.90;;;8.94;46.98;95145.31;5079371;28;20484;-56
2022/12/22 07:15:50;;;;;;;101.00;43.07;;;9.30;73.50;;;9.07;46.94;95144.34;5078582;28;20466;-57
2022/12/22 07:18:17;;;;;;;116.53;40.90;;;9.50;72.00;;;9.31;46.43;95147.59;5080504;28;20501;-57
2022/12/22 07:20:44;;;;;;;90.60;40.13;;;9.70;71.10;;;9.66;45.12;95146.47;5079341;28;20475;-56
2022/12/22 07:23:11;;;;;;;90.70;39.53;;;10.00;67.70;;;9.75;45.18;95155.38;5083250;28;20469;-57
2022/12/22 07:25:40;;;;;;;95.27;36.10;;;10.30;67.80;;;10.00;43.42;95154.16;5083432;28;20809;-55
2022/12/22 07:28:07;;;;;;;67.23;33.37;;;10.50;62.40;;;10.32;43.74;95147.97;5082616;28;20460;-56
2022/12/22 07:30:35;;;;;;;74.50;33.50;;;10.80;63.60;;;10.52;43.81;95146.28;5082153;28;20588;-57
2022/12/22 07:33:03;;;;;;;67.87;31.40;;;11.10;63.10;;;10.65;43.45;95148.69;5081315;28;20468;-56
2022/12/22 07:35:30;;;;;;;60.47;29.47;;;11.30;62.40;;;10.90;42.79;95144.72;5082668;28;20501;-57
2022/12/22 07:37:57;;;;;;;59.37;30.63;;;11.60;61.10;;;11.22;42.17;95141.06;5082254;28;20493;-56
2022/12/22 07:40:25;;;;;;;59.03;31.30;;;12.00;60.00;;;11.59;41.63;95144.81;5083486;28;20466;-55
2022/12/22 07:42:57;;;;;;;68.60;33.27;;;12.30;58.80;;;11.94;41.17;95146.88;5082457;28;20454;-56
2022/12/22 07:45:25;;;;;;;72.07;33.70;;;12.70;58.60;;;12.29;40.71;95149.88;5079530;28;20467;-56
2022/12/22 07:47:52;;;;;;;55.77;31.20;;;12.90;57.60;;;12.64;40.15;95146.53;5084009;28;20503;-57
2022/12/22 07:50:26;;;;;;;63.17;31.77;;;13.20;56.80;;;13.02;39.26;95147.31;5080784;28;20470;-57
2022/12/22 07:52:54;;;;;;;73.43;30.47;;;13.50;55.70;;;13.32;38.97;95147.13;5081076;28;20832;-56
2022/12/22 07:55:21;;;;;;;63.97;28.87;;;13.70;55.60;;;13.52;38.76;95150.50;5081284;28;20474;-55
2022/12/22 07:57:49;;;;;;;50.87;29.60;;;13.80;54.90;;;13.73;38.25;95147.56;5079322;28;20450;-56
2022/12/22 08:00:18;;;;;;;56.67;28.57;;;13.90;54.90;;;13.91;38.06;95137.78;5080834;28;20531;-55
2022/12/22 08:02:49;;;;;;;59.07;27.20;;;14.00;54.30;;;14.12;38.02;95140.06;5080426;28;20552;-55
2022/12/22 08:05:16;;;;;;;49.47;28.53;;;14.10;53.80;;;14.32;37.59;95134.56;5082652;28;20469;-56
2022/12/22 08:07:44;;;;;;;48.30;28.27;;;14.20;53.80;;;14.54;37.09;95135.84;5080199;28;20459;-56
2022/12/22 08:10:11;;;;;;;55.83;28.03;;;14.50;52.90;;;14.75;36.69;95135.50;5082738;28;20481;-56
2022/12/22 08:12:39;;;;;;;60.77;29.33;;;14.60;52.40;;;14.94;36.62;95142.34;5080166;28;20485;-53
2022/12/22 08:15:08;;;;;;;66.47;33.90;;;14.80;52.60;;;15.16;36.25;95129.50;5083192;28;20527;-57
2022/12/22 08:17:37;;;;;;;63.83;32.67;;;15.00;52.00;;;15.37;36.17;95134.38;5080352;28;20458;-56
2022/12/22 08:20:05;;;;;;;65.00;31.23;;;15.20;52.00;;;15.58;35.97;95133.88;5083008;28;20555;-66
2022/12/22 08:22:32;;;;;;;64.73;32.57;;;15.40;51.70;;;15.77;35.21;95143.41;5079832;28;20585;-55
2022/12/22 08:25:00;;;;;;;58.73;33.70;;;15.60;50.30;;;15.90;35.31;95138.41;5083517;28;20892;-54
2022/12/22 08:27:37;;;;;;;64.30;32.83;;;15.70;50.70;;;16.03;35.13;95139.72;5079733;28;20450;-56
2022/12/22 08:30:05;;;;;;;73.77;36.60;;;15.90;50.10;;;16.16;34.25;95139.22;5076169;28;20469;-57
2022/12/22 08:32:32;;;;;;;64.23;37.13;;;16.00;49.00;;;16.22;34.23;95134.06;5078579;28;20511;-55
2022/12/22 08:35:00;;;;;;;62.30;33.57;;;16.10;48.50;;;16.28;34.25;95133.41;5083039;28;20585;-55
2022/12/22 08:37:28;;;;;;;60.17;35.30;;;16.10;48.70;;;16.36;33.91;95129.91;5080714;28;20535;-55
2022/12/22 08:39:57;;;;;;;74.03;35.93;;;16.20;48.20;;;16.42;34.15;95123.91;5081740;28;20501;-54
2022/12/22 08:42:25;;;;;;;74.93;35.43;;;16.20;48.70;;;16.49;33.82;95119.56;5082448;28;20549;-56
2022/12/22 08:44:52;;;;;;;59.30;34.20;;;16.30;48.00;;;16.58;33.66;95119.56;5074842;28;20471;-57
2022/12/22 08:47:20;;;;;;;59.60;34.30;;;16.40;48.00;;;16.59;32.27;95122.06;5081119;28;20454;-57
2022/12/22 08:49:47;;;;;;;67.80;36.63;;;16.40;45.50;;;16.52;33.28;95117.59;5081634;28;20473;-56
2022/12/22 08:52:16;;;;;;;65.37;36.90;;;16.40;47.10;;;16.51;33.30;95115.94;5080802;28;20458;-57
2022/12/22 08:54:43;;;;;;;78.33;36.40;;;16.30;46.50;;;16.51;33.39;95106.13;5081004;28;20465;-56
2022/12/22 08:57:11;;;;;;;68.87;37.10;;;16.30;47.10;;;16.54;32.74;95094.34;5079698;28;20451;-58
2022/12/22 08:59:38;;;;;;;77.83;38.07;;;16.40;46.30;;;16.56;33.38;95101.16;5080995;28;20498;-55
2022/12/22 09:02:05;;;;;;;65.20;34.17;;;16.40;47.20;;;16.61;33.42;95096.16;5080752;28;20454;-56
2022/12/22 09:04:33;;;;;;;68.67;37.13;;;16.40;46.90;;;16.70;33.64;95094.28;5082450;28;20469;-56
2022/12/22 09:07:01;;;;;;;65.70;35.33;;;16.50;46.90;;;16.82;33.20;95086.75;5083787;28;20875;-57
2022/12/22 09:09:31;;;;;;;65.67;35.80;;;16.60;46.50;;;16.94;32.84;95084.59;5079708;28;20494;-57
2022/12/22 09:11:58;;;;;;;73.60;35.77;;;16.70;46.40;;;17.05;32.75;95091.34;5082248;28;20865;-56
2022/12/22 09:14:25;;;;;;;68.03;37.33;;;16.80;46.50;;;17.07;31.97;95082.19;5079234;28;20537;-54
2022/12/22 09:16:53;;;;;;;66.13;37.43;;;16.90;44.60;;;17.09;33.01;95084.69;5082804;28;20458;-56
2022/12/22 09:19:20;;;;;;;65.10;36.70;;;16.90;46.20;;;17.18;32.69;95080.94;5078807;28;21032;-56
2022/12/22 09:21:48;;;;;;;60.77;36.47;;;16.90;46.00;;;17.30;32.49;95078.72;5083237;28;20457;-56
2022/12/22 09:24:15;;;;;;;60.80;36.77;;;17.00;45.70;;;17.43;32.08;95078.97;5078949;28;20450;-56
2022/12/22 09:26:44;;;;;;;66.77;38.57;;;17.20;45.70;;;17.55;30.77;95080.22;5081627;28;20454;-57
2022/12/22 09:29:14;;;;;;;61.37;35.57;;;17.30;45.10;;;17.61;32.28;95076.00;5078359;28;20453;-56
2022/12/22 09:31:41;;;;;;;59.53;35.63;;;17.40;45.20;;;17.76;31.11;95069.91;5080404;28;20823;-57
2022/12/22 09:34:08;;;;;;;71.00;35.60;;;17.50;43.70;;;17.86;30.62;95068.66;5076962;28;20512;-57
2022/12/22 09:36:35;;;;;;;56.30;33.60;;;17.60;43.50;;;17.96;30.90;95067.63;5081635;28;20457;-57
2022/12/22 09:39:05;;;;;;;69.47;35.10;;;17.70;44.20;;;18.12;30.44;95069.28;5079460;28;20494;-56
2022/12/22 09:41:35;;;;;;;71.67;32.60;;;17.80;43.40;;;18.27;30.62;95065.63;5076682;28;20548;-56
2022/12/22 09:44:05;;;;;;;60.00;33.80;;;17.90;43.70;;;18.43;30.75;95067.28;5077058;28;20476;-55
2022/12/22 09:46:34;;;;;;;65.33;34.77;;;18.10;43.60;;;18.63;30.50;95067.53;5078608;28;20577;-57
2022/12/22 09:49:02;;;;;;;72.03;37.10;;;18.30;43.30;;;18.78;30.04;95056.88;5079444;28;20458;-55
2022/12/22 09:51:29;;;;;;;77.70;37.10;;;18.40;43.10;;;19.03;29.93;95047.78;5080675;28;20489;-59
2022/12/22 09:53:58;;;;;;;64.93;39.30;;;18.60;42.90;;;19.32;29.63;95041.53;5079783;28;20458;-56
2022/12/22 09:56:26;;;;;;;67.83;38.73;;;18.90;42.70;;;19.59;29.20;95041.75;5075404;28;20478;-57
2022/12/22 09:58:53;;;;;;;69.30;38.90;;;19.20;42.00;;;19.82;29.04;95041.59;5079060;28;20606;-56
2022/12/22 10:01:41;;;;;;;61.10;38.90;;;19.40;42.00;;;20.05;28.28;95036.81;5078048;28;20552;-56
2022/12/22 10:04:14;;;;;;;73.53;40.27;;;19.70;40.90;;;20.21;26.87;95034.88;5076036;28;20453;-57
2022/12/22 10:06:45;;;;;;;74.03;43.80;;;19.80;38.90;;;20.22;26.89;95031.19;5079940;28;20485;-57
2022/12/22 10:09:17;;;;;;;72.87;40.57;;;19.90;38.60;;;20.16;27.86;95026.63;5079820;28;20453;-57
2022/12/22 10:11:51;;;;;;;74.00;42.30;;;19.80;40.20;;;20.26;27.32;95019.09;5080413;28;20541;-55
2022/12/22 10:14:18;;;;;;;66.33;42.57;;;19.80;39.50;;;20.35;28.41;95020.56;5072473;28;20470;-55
2022/12/22 10:16:47;;;;;;;77.77;42.30;;;19.90;40.70;;;20.56;27.83;95013.50;5079157;28;20458;-56
2022/12/22 10:19:14;;;;;;;83.37;43.40;;;20.10;40.50;;;20.68;27.78;95003.94;5077413;28;20499;-55
2022/12/22 10:21:42;;;;;;;92.07;45.57;;;20.30;40.10;;;20.78;28.03;94995.53;5078983;28;20564;-55
2022/12/22 10:24:17;;;;;;;82.27;46.03;;;20.50;39.90;;;20.98;27.49;94997.47;5077476;28;20459;-55
2022/12/22 10:26:44;;;;;;;100.37;50.10;;;20.60;39.60;;;21.20;27.67;94987.41;5079458;28;20445;-57
2022/12/22 10:29:13;;;;;;;92.90;53.93;;;20.90;39.50;;;21.44;27.13;94994.03;5078407;28;20958;-58
2022/12/22 10:34:33;;;;;;;89.80;50.50;;;21.10;38.80;;;22.24;26.81;94974.44;5116397;27;20582;-53
2022/12/22 10:37:03;;;;;;;101.47;54.73;;;21.70;39.00;;;22.60;26.72;94984.66;5102647;28;20514;-57
2022/12/22 10:39:32;;;;;;;99.47;54.17;;;22.00;38.60;;;22.99;26.17;94982.00;5097303;28;20502;-56
2022/12/22 10:42:01;;;;;;;101.73;58.07;;;22.40;38.20;;;23.36;25.36;94971.50;5102432;28;20812;-56
2022/12/22 10:44:30;;;;;;;88.10;56.80;;;22.80;37.50;;;23.66;25.64;94965.53;5098387;28;21066;-55
2022/12/22 10:46:58;;;;;;;98.00;55.40;;;23.10;37.00;;;23.92;24.62;94965.31;5104808;28;20454;-56
2022/12/22 10:49:27;;;;;;;99.13;58.17;;;23.40;36.80;;;24.18;25.10;94958.03;5102344;28;20451;-56
2022/12/22 10:51:58;;;;;;;103.30;57.37;;;23.70;36.30;;;24.40;24.36;94955.75;5100613;28;20530;-56
2022/12/22 10:54:29;;;;;;;101.60;57.60;;;23.90;36.40;;;24.61;24.28;94957.16;5098915;28;20486;-57
2022/12/22 10:57:02;;;;;;;104.57;58.70;;;24.20;35.70;;;24.87;24.32;94955.19;5094329;28;20517;-56
2022/12/22 10:59:29;;;;;;;105.73;61.43;;;24.40;35.80;;;25.15;23.58;94951.91;5094987;28;20477;-57
2022/12/22 11:02:24;;;;;;;107.20;60.77;;;24.70;35.30;;;25.43;23.65;94947.78;5099233;28;20452;-55
2022/12/22 11:04:51;;;;;;;107.97;60.87;;;24.90;34.70;;;25.54;23.53;94944.28;5095928;28;20461;-55
2022/12/22 11:07:20;;;;;;;102.07;60.70;;;25.20;34.50;;;25.62;23.44;94943.13;5095757;28;20988;-57
2022/12/22 11:09:47;;;;;;;104.40;64.40;;;25.30;33.80;;;25.56;23.29;94944.91;5098392;28;20468;-57
2022/12/22 11:12:21;;;;;;;112.97;64.17;;;25.40;33.50;;;25.63;22.74;94942.09;5097135;28;20460;-57
2022/12/22 11:14:53;;;;;;;108.50;64.23;;;25.40;33.50;;;25.68;22.26;94936.00;5097152;28;20473;-56
2022/12/22 11:17:25;;;;;;;102.40;60.37;;;25.50;32.60;;;25.39;22.24;94931.28;5100371;28;20434;-55
2022/12/22 11:20:03;;;;;;;115.97;63.17;;;25.50;32.50;;;24.76;23.15;94929.88;5098639;28;20541;-54
2022/12/22 11:22:37;;;;;;;114.83;60.43;;;25.40;32.50;;;24.25;23.10;94926.53;5095450;28;20441;-56
2022/12/22 11:25:18;;;;;;;124.13;62.57;;;25.00;33.00;;;23.72;23.43;94924.31;5099524;28;20465;-56
2022/12/22 11:28:03;;;;;;;105.23;62.10;;;24.50;32.30;;;23.08;23.69;94922.56;5096297;28;20453;-57
2022/12/22 11:30:35;;;;;;;106.80;59.63;;;23.90;32.80;;;22.61;24.31;94921.16;5096738;28;20997;-55
2022/12/22 11:33:22;;;;;;;107.40;60.10;;;23.30;33.80;;;22.27;25.47;94921.25;5098742;28;20546;-57
2022/12/22 11:35:57;;;;;;;104.77;64.37;;;22.90;34.50;;;21.91;23.70;94911.88;5095899;28;20469;-57
2022/12/22 11:38:38;;;;;;;99.87;59.57;;;22.40;32.80;;;21.38;25.16;94912.72;5100170;28;20467;-57
2022/12/22 11:41:11;;;;;;;114.53;59.67;;;21.90;34.50;;;20.92;25.49;94914.31;5092809;28;20548;-57
2022/12/22 11:43:46;;;;;;;108.80;63.27;;;21.40;34.40;;;20.47;26.20;94915.84;5100580;28;20937;-56
2022/12/22 11:46:21;;;;;;;109.60;60.93;;;20.90;35.90;;;20.15;26.59;94904.81;5085525;28;20559;-56
2022/12/22 11:49:14;;;;;;;107.10;62.47;;;20.50;36.20;;;19.90;26.71;94909.81;5081831;28;20478;-54
2022/12/22 11:51:57;;;;;;;117.10;59.13;;;20.10;36.30;;;19.42;27.13;94907.81;5084499;28;20449;-56
2022/12/22 11:54:42;;;;;;;112.33;60.73;;;19.70;35.90;;;18.95;26.98;94894.94;5084855;28;20556;-56
2022/12/22 11:57:19;;;;;;;113.17;61.20;;;19.10;36.30;;;18.64;28.02;94901.34;5074126;28;20468;-58
2022/12/22 11:59:53;;;;;;;105.07;58.30;;;18.80;36.90;;;18.34;28.32;94905.13;5084633;28;20590;-54
2022/12/22 12:02:41;;;;;;;120.47;58.57;;;18.40;37.50;;;18.08;28.70;94901.13;5085260;28;20499;-57
2022/12/22 12:05:37;;;;;;;118.13;58.40;;;18.10;38.40;;;17.63;28.24;94897.59;5082808;28;20859;-55
2022/12/22 12:08:09;;;;;;;113.30;58.17;;;17.80;37.90;;;17.24;29.25;94896.00;5084235;28;20434;-56
2022/12/22 12:10:42;;;;;;;112.50;59.13;;;17.30;38.60;;;16.90;29.31;94890.16;5085656;28;20469;-56
2022/12/22 12:13:15;;;;;;;142.70;59.47;;;17.00;39.10;;;16.63;29.92;94894.97;5087705;28;21036;-55
2022/12/22 12:15:46;;;;;;;110.80;59.20;;;16.70;39.50;;;16.33;30.15;94891.34;5080175;28;20477;-58
2022/12/22 12:18:38;;;;;;;117.30;63.50;;;16.40;39.70;;;16.01;30.66;94887.84;5080223;28;20449;-55
2022/12/22 12:21:24;;;;;;;128.50;61.97;;;16.10;40.40;;;15.77;31.28;94886.16;5077639;28;21165;-57
2022/12/22 12:24:32;;;;;;;126.37;61.00;;;15.80;41.30;;;15.54;31.76;94891.31;5081956;28;20441;-56
2022/12/22 12:27:06;;;;;;;104.90;61.80;;;15.60;41.70;;;15.34;31.91;94881.09;5072744;28;20511;-57
2022/12/22 12:29:37;;;;;;;111.93;60.20;;;15.30;41.80;;;15.12;32.09;94885.28;5081653;28;20463;-57
2022/12/22 12:32:07;;;;;;;118.07;61.53;;;15.10;41.90;;;14.93;32.06;94873.19;5085765;28;20438;-58
2022/12/22 12:34:37;;;;;;;126.53;61.90;;;14.90;42.20;;;14.73;32.55;94866.56;5080161;28;20502;-55
2022/12/22 12:37:08;;;;;;;114.37;60.70;;;14.70;42.60;;;14.54;33.06;94879.09;5086536;28;20516;-56
2022/12/22 12:39:39;;;;;;;126.33;63.90;;;14.50;42.90;;;14.35;33.36;94878.41;5080720;28;20484;-57
2022/12/22 12:42:20;;;;;;;110.43;59.07;;;14.30;43.10;;;14.19;33.59;94870.47;5085668;28;20449;-56
2022/12/22 12:44:51;;;;;;;118.60;60.70;;;14.10;43.60;;;14.04;33.65;94870.25;5084249;28;20534;-57
2022/12/22 12:47:26;;;;;;;130.07;61.47;;;14.00;43.80;;;13.85;33.93;94868.72;5086483;28;20434;-56
2022/12/22 12:50:19;;;;;;;126.33;62.90;;;13.80;44.00;;;13.70;34.30;94870.31;5081107;28;20474;-54
2022/12/22 12:53:16;;;;;;;105.40;59.63;;;13.70;44.10;;;13.48;34.65;94867.25;5083077;28;20450;-54
2022/12/22 12:55:57;;;;;;;121.77;59.43;;;13.50;44.70;;;13.28;34.58;94867.41;5081387;28;20470;-56
2022/12/22 12:58:54;;;;;;;112.57;60.23;;;13.20;44.90;;;13.08;35.38;94872.09;5079496;28;20446;-54
2022/12/22 13:01:58;;;;;;;123.27;62.33;;;13.10;45.30;;;12.86;36.16;94868.16;5006397;28;20487;-56
2022/12/22 13:05:30;;;;;;;122.97;60.13;;;12.90;46.60;;;12.59;36.91;94869.06;5081622;28;20965;-57
2022/12/22 13:08:29;;;;;;;120.63;59.20;;;12.60;47.50;;;12.34;37.41;94868.84;5081707;28;20481;-56
2022/12/22 13:11:34;;;;;;;134.03;60.43;;;12.30;48.30;;;12.11;38.14;94868.47;5079999;28;20556;-54
2022/12/22 13:14:02;;;;;;;111.00;56.27;;;12.10;48.30;;;11.97;37.70;94869.00;5078929;28;20481;-55
2022/12/22 13:16:35;;;;;;;113.13;60.43;;;11.90;48.70;;;11.87;38.34;94868.19;5082676;28;20474;-56
2022/12/22 13:19:24;;;;;;;113.77;59.50;;;11.80;49.20;;;11.76;38.43;94858.69;5082364;28;20447;-57
2022/12/22 13:21:51;;;;;;;141.23;62.10;;;11.70;49.20;;;11.69;38.38;94865.53;5078564;28;20442;-54
2022/12/22 13:24:22;;;;;;;128.57;65.20;;;11.60;49.30;;;11.60;38.86;94849.63;5085780;28;20450;-56
2022/12/22 13:26:53;;;;;;;120.67;63.70;;;11.60;50.10;;;11.54;38.54;94858.13;5082001;28;20446;-56
2022/12/22 13:29:27;;;;;;;132.37;62.23;;;11.50;49.60;;;11.50;40.01;94855.91;5086372;28;20466;-56
2022/12/22 13:31:57;;;;;;;116.03;59.70;;;11.40;50.90;;;11.41;39.47;94854.97;5079697;28;20502;-55
2022/12/22 13:34:46;;;;;;;129.83;60.07;;;11.40;50.80;;;11.35;40.13;94851.09;5084170;28;20900;-56
2022/12/22 13:37:18;;;;;;;108.70;57.57;;;11.30;50.90;;;11.31;39.59;94849.75;5077538;28;20461;-56
2022/12/22 13:40:06;;;;;;;135.83;61.03;;;11.30;50.80;;;11.30;39.52;94848.09;5082869;28;20472;-56
2022/12/22 13:42:36;;;;;;;121.33;61.30;;;11.20;50.60;;;11.23;39.61;94853.13;5080869;28;20437;-57
2022/12/22 13:45:06;;;;;;;122.30;61.13;;;11.20;50.90;;;11.16;39.84;94851.19;5086400;28;20465;-54
2022/12/22 13:47:33;;;;;;;124.37;60.60;;;11.20;50.80;;;11.09;39.99;94849.13;5080552;28;20504;-57
2022/12/22 13:50:01;;;;;;;140.50;64.43;;;11.10;51.20;;;11.02;40.18;94847.22;5085709;28;20509;-55
2022/12/22 13:52:28;;;;;;;127.80;63.97;;;11.10;51.40;;;10.93;40.55;94846.25;5079925;28;20520;-56
2022/12/22 13:54:55;;;;;;;132.60;63.60;;;11.00;51.80;;;10.87;40.58;94844.19;5085189;28;20500;-57
2022/12/22 13:57:22;;;;;;;123.63;60.10;;;10.90;52.10;;;10.81;41.03;94847.41;5077160;28;20459;-56
2022/12/22 13:59:50;;;;;;;124.17;60.17;;;10.80;52.40;;;10.75;40.90;94843.53;5077728;28;20574;-53
2022/12/22 14:02:20;;;;;;;109.30;58.00;;;10.80;52.40;;;10.69;41.07;94842.31;5080078;28;20699;-58
2022/12/22 14:05:04;;;;;;;140.80;64.40;;;10.70;52.30;;;10.64;41.13;94846.31;5085752;28;20900;-57